Time;durP1;ratioP1;P1;durP2;ratioP2;P2;SDS_P1;SDS_P2;PMS_P1;PMS_P2;Temp;Humidity;BMP_temperature;BMP_pressure;BME280_temperature;BME280_humidity;BME280_pressure;Samples;Min_cycle;Max_cycle;Signal;HPM_P1;HPM_P2
2022/03/31 00:01:29;;;;;;;14.53;13.07;;;;;;;10.10;85.81;93611.97;4379165;32;20284;-58
2022/03/31 00:03:54;;;;;;;15.43;13.83;;;;;;;10.03;85.79;93617.03;4367792;32;20203;-58
2022/03/31 00:06:31;;;;;;;13.83;12.53;;;;;;;9.94;86.07;93613.75;4363352;32;20322;-58
2022/03/31 00:08:57;;;;;;;14.43;12.33;;;;;;;9.90;86.41;93618.16;4380815;32;20243;-59
2022/03/31 00:11:27;;;;;;;13.40;12.10;;;;;;;10.02;86.00;93607.53;4354649;32;20292;-58
2022/03/31 00:13:57;;;;;;;13.50;12.30;;;;;;;9.86;86.37;93611.97;4385213;32;20251;-59
2022/03/31 00:16:22;;;;;;;14.37;13.03;;;;;;;9.95;86.24;93607.34;4388160;32;20441;-58
2022/03/31 00:18:48;;;;;;;14.03;11.80;;;;;;;9.86;86.67;93607.44;4380700;32;20275;-58
2022/03/31 00:21:23;;;;;;;14.03;12.73;;;;;;;10.05;85.60;93598.94;4380755;32;20187;-58
2022/03/31 00:23:49;;;;;;;14.23;12.63;;;;;;;10.09;84.82;93601.69;4364517;32;20180;-58
2022/03/31 00:26:24;;;;;;;13.70;12.43;;;;;;;10.11;84.91;93600.25;4350642;32;20269;-58
2022/03/31 00:28:50;;;;;;;15.83;14.17;;;;;;;10.15;85.09;93601.16;4370497;32;20279;-59
2022/03/31 00:31:20;;;;;;;14.77;13.13;;;;;;;10.18;84.74;93600.50;4351234;32;20272;-58
2022/03/31 00:33:47;;;;;;;14.73;13.33;;;;;;;10.10;84.96;93595.28;4368401;32;20391;-59
2022/03/31 00:36:19;;;;;;;14.13;12.77;;;;;;;9.98;85.34;93593.41;4364311;32;20273;-58
2022/03/31 00:41:35;;;;;;;13.97;12.37;;;;;;;10.04;84.50;93586.78;4338842;32;20353;-59
2022/03/31 00:44:01;;;;;;;13.83;12.60;;;;;;;9.95;84.66;93588.78;4364988;32;20284;-58
2022/03/31 00:46:26;;;;;;;14.73;12.93;;;;;;;9.96;84.68;93582.41;4378025;32;20426;-58
2022/03/31 00:48:57;;;;;;;15.20;13.73;;;;;;;10.14;84.11;93580.28;4362469;32;20279;-58
2022/03/31 00:51:30;;;;;;;14.20;12.77;;;;;;;10.02;84.62;93573.09;4374777;32;20181;-59
2022/03/31 00:53:57;;;;;;;14.70;13.30;;;;;;;10.05;84.27;93571.66;4375909;32;20289;-59
2022/03/31 00:56:27;;;;;;;15.00;13.50;;;;;;;10.07;84.47;93574.75;4363408;32;20404;-58
2022/03/31 00:58:54;;;;;;;14.43;13.03;;;;;;;10.09;84.77;93572.56;4335655;32;20403;-59
2022/03/31 01:01:27;;;;;;;15.10;13.50;;;;;;;10.09;84.71;93568.03;4373134;32;20270;-59
2022/03/31 01:03:55;;;;;;;16.30;14.00;;;;;;;9.91;85.88;93561.44;4374852;32;20276;-59
2022/03/31 01:06:23;;;;;;;15.37;13.87;;;;;;;10.02;85.38;93565.16;4388362;32;20321;-59
2022/03/31 01:08:49;;;;;;;15.53;14.07;;;;;;;9.94;85.92;93561.53;4384386;32;20284;-58
2022/03/31 01:11:32;;;;;;;16.20;14.50;;;;;;;9.97;86.16;93560.87;4382720;32;20359;-59
2022/03/31 01:13:59;;;;;;;15.93;13.93;;;;;;;10.02;86.12;93548.50;4389848;32;20188;-59
2022/03/31 01:16:25;;;;;;;16.00;14.50;;;;;;;9.91;86.21;93545.53;4384970;32;20373;-59
2022/03/31 01:18:51;;;;;;;16.60;14.83;;;;;;;9.89;86.19;93545.09;4369021;32;20355;-59
2022/03/31 01:21:23;;;;;;;17.73;14.73;;;;;;;9.88;85.80;93541.66;4389586;32;20180;-59
2022/03/31 01:23:54;;;;;;;16.33;14.73;;;;;;;9.93;85.65;93535.38;4367019;32;20185;-59
2022/03/31 01:26:31;;;;;;;16.27;14.57;;;;;;;9.81;85.90;93541.44;4322385;32;20278;-58
2022/03/31 01:28:57;;;;;;;16.80;15.00;;;;;;;9.79;86.34;93527.75;4383923;32;20271;-58
2022/03/31 01:31:43;;;;;;;16.67;14.93;;;;;;;9.90;86.17;93522.81;4365374;32;20291;-59
2022/03/31 01:34:09;;;;;;;17.80;16.10;;;;;;;9.91;85.69;93525.13;4373835;32;20198;-59
2022/03/31 01:36:35;;;;;;;16.83;15.13;;;;;;;9.99;85.64;93524.22;4372139;32;20288;-59
2022/03/31 01:39:01;;;;;;;16.47;14.87;;;;;;;10.05;85.97;93527.41;4374589;32;20262;-59
2022/03/31 01:41:27;;;;;;;16.63;15.03;;;;;;;10.00;85.75;93517.03;4366615;32;20288;-59
2022/03/31 01:43:52;;;;;;;18.23;16.43;;;;;;;9.92;86.17;93517.94;4372863;32;20255;-59
2022/03/31 01:46:31;;;;;;;18.37;16.50;;;;;;;9.82;86.65;93521.81;4398777;32;20172;-59
2022/03/31 01:48:57;;;;;;;18.00;16.07;;;;;;;9.90;86.32;93517.50;4398789;32;20237;-59
2022/03/31 01:51:22;;;;;;;17.03;15.33;;;;;;;9.91;86.19;93503.94;4383173;32;20320;-59
2022/03/31 01:53:48;;;;;;;17.67;15.77;;;;;;;9.88;86.31;93509.88;4390594;32;20269;-59
2022/03/31 01:56:27;;;;;;;17.47;15.70;;;;;;;9.62;87.05;93502.28;4390921;32;20180;-59
2022/03/31 01:58:54;;;;;;;19.03;17.07;;;;;;;9.72;86.73;93508.25;4357504;32;20396;-58
2022/03/31 02:01:23;;;;;;;17.80;15.97;;;;;;;9.86;86.40;93506.03;4384940;32;20276;-59
2022/03/31 02:03:48;;;;;;;17.73;16.00;;;;;;;9.91;85.84;93505.81;4385901;32;20276;-59
2022/03/31 02:06:25;;;;;;;19.80;17.80;;;;;;;9.89;85.86;93505.38;4387762;32;20271;-59
2022/03/31 02:08:51;;;;;;;19.43;17.50;;;;;;;9.88;85.83;93501.94;4339092;32;20236;-58
2022/03/31 02:11:35;;;;;;;18.93;17.03;;;;;;;9.75;86.30;93497.00;4328390;32;20293;-59
2022/03/31 02:14:03;;;;;;;19.33;17.30;;;;;;;9.69;86.66;93480.56;4374916;32;20204;-59
2022/03/31 02:16:29;;;;;;;18.97;16.00;;;;;;;9.64;86.76;93486.84;4360053;32;20265;-59
2022/03/31 02:18:58;;;;;;;19.43;17.53;;;;;;;9.74;86.09;93483.00;4384458;32;20329;-59
2022/03/31 02:21:24;;;;;;;17.93;16.17;;;;;;;9.57;87.42;93481.31;4354544;32;20355;-59
2022/03/31 02:23:49;;;;;;;19.33;17.43;;;;;;;9.74;86.57;93480.34;4361821;32;20459;-59
2022/03/31 02:26:23;;;;;;;18.60;16.77;;;;;;;9.75;86.45;93479.25;4371405;32;20195;-59
2022/03/31 02:28:51;;;;;;;18.10;16.30;;;;;;;9.87;86.03;93465.19;4355578;32;20214;-59
2022/03/31 02:31:23;;;;;;;19.87;17.77;;;;;;;9.81;85.95;93459.34;4388832;32;20283;-59
2022/03/31 02:33:50;;;;;;;18.60;16.70;;;;;;;9.56;87.12;93465.81;4389369;32;20333;-59
2022/03/31 02:36:23;;;;;;;19.13;17.00;;;;;;;9.63;87.16;93456.19;4382578;32;20299;-59
2022/03/31 02:38:52;;;;;;;18.90;16.83;;;;;;;9.70;86.67;93454.84;4377396;32;20286;-59
2022/03/31 02:41:21;;;;;;;21.20;18.37;;;;;;;9.63;86.93;93448.25;4392374;32;20366;-58
2022/03/31 02:43:48;;;;;;;19.47;17.50;;;;;;;9.58;87.15;93445.81;4399484;32;20275;-59
2022/03/31 02:46:30;;;;;;;19.90;17.90;;;;;;;9.65;87.33;93451.31;4386455;32;20276;-59
2022/03/31 02:48:57;;;;;;;19.03;17.03;;;;;;;9.58;87.42;93443.16;4389322;32;20264;-58
2022/03/31 02:51:28;;;;;;;17.67;15.87;;;;;;;9.68;87.00;93446.47;4382911;32;20369;-59
2022/03/31 02:56:40;;;;;;;19.50;16.97;;;;;;;9.69;86.75;93437.44;4380200;32;20328;-59
2022/03/31 02:59:07;;;;;;;18.60;16.63;;;;;;;9.78;86.30;93441.47;4390063;32;20276;-59
2022/03/31 03:01:37;;;;;;;18.37;16.47;;;;;;;9.73;86.44;93438.31;4346913;32;20286;-63
2022/03/31 03:04:08;;;;;;;19.97;17.83;;;;;;;9.73;86.35;93447.03;4364724;32;20280;-59
2022/03/31 03:06:34;;;;;;;18.47;16.60;;;;;;;9.43;87.61;93435.91;4383635;32;20317;-60
2022/03/31 03:09:00;;;;;;;18.13;16.43;;;;;;;9.59;87.20;93430.69;4369733;32;20273;-59
2022/03/31 03:11:27;;;;;;;19.07;17.07;;;;;;;9.45;87.45;93433.69;4357512;32;20321;-59
2022/03/31 03:13:53;;;;;;;20.00;18.00;;;;;;;9.29;88.19;93424.91;4376220;32;20355;-59
2022/03/31 03:16:35;;;;;;;18.20;16.07;;;;;;;9.32;88.42;93423.47;4388380;32;20280;-59
2022/03/31 03:19:01;;;;;;;18.83;16.57;;;;;;;9.18;88.94;93418.50;4389252;32;20300;-58
2022/03/31 03:21:30;;;;;;;19.67;17.50;;;;;;;9.06;89.36;93418.50;4366079;32;20407;-59
2022/03/31 03:23:56;;;;;;;18.50;16.70;;;;;;;9.00;90.12;93425.09;4384261;32;20276;-59
2022/03/31 03:26:24;;;;;;;20.40;18.40;;;;;;;9.05;89.93;93423.03;4382369;32;20710;-59
2022/03/31 03:28:52;;;;;;;20.27;18.17;;;;;;;8.91;90.67;93425.22;4378702;32;20199;-59
2022/03/31 03:31:42;;;;;;;18.93;16.93;;;;;;;8.93;90.84;93421.16;4372610;32;20362;-59
2022/03/31 03:34:09;;;;;;;21.00;18.53;;;;;;;9.04;90.39;93423.34;4368858;32;20386;-60
2022/03/31 03:36:37;;;;;;;19.80;17.60;;;;;;;8.86;90.86;93423.56;4374484;32;20287;-58
2022/03/31 03:39:06;;;;;;;21.60;18.73;;;;;;;9.21;89.75;93415.97;4383252;32;20276;-59
2022/03/31 03:41:39;;;;;;;19.50;17.50;;;;;;;9.22;89.11;93420.16;4388292;32;20292;-59
2022/03/31 03:44:05;;;;;;;19.53;17.53;;;;;;;9.07;89.72;93420.03;4368305;32;20304;-59
2022/03/31 03:46:31;;;;;;;20.60;18.23;;;;;;;9.07;89.92;93417.41;4382519;32;20275;-59
2022/03/31 03:48:59;;;;;;;25.37;19.30;;;;;;;9.04;90.00;93412.78;4359903;32;20297;-59
2022/03/31 03:51:29;;;;;;;20.43;18.33;;;;;;;9.02;89.71;93413.09;4377293;32;20303;-59
2022/03/31 03:53:56;;;;;;;20.37;18.20;;;;;;;8.92;90.42;93413.53;4381085;32;20280;-59
2022/03/31 03:56:34;;;;;;;20.97;18.07;;;;;;;9.22;89.12;93411.44;4379253;32;20295;-59
2022/03/31 03:59:01;;;;;;;19.67;17.60;;;;;;;9.26;88.70;93407.81;4386976;32;20275;-59
2022/03/31 04:01:27;;;;;;;19.40;16.83;;;;;;;9.31;88.26;93412.12;4381011;32;20313;-59
2022/03/31 04:03:52;;;;;;;20.13;18.03;;;;;;;9.39;87.65;93411.22;4384842;32;20382;-59
2022/03/31 04:06:39;;;;;;;18.83;16.83;;;;;;;9.28;88.17;93412.78;4374570;32;20198;-59
2022/03/31 04:09:05;;;;;;;19.53;17.57;;;;;;;9.34;87.94;93416.75;4356088;32;20232;-59
2022/03/31 04:11:31;;;;;;;23.03;19.77;;;;;;;9.36;87.80;93405.81;4390374;32;20321;-59
2022/03/31 04:13:56;;;;;;;20.03;18.03;;;;;;;9.56;87.14;93403.00;4363996;32;20300;-59
2022/03/31 04:16:37;;;;;;;19.47;17.50;;;;;;;9.58;86.87;93405.34;4376759;32;20287;-59
2022/03/31 04:19:08;;;;;;;19.73;17.47;;;;;;;9.62;86.31;93408.87;4364038;32;20180;-59
2022/03/31 04:21:35;;;;;;;21.50;17.83;;;;;;;9.65;86.01;93402.91;4365684;32;20363;-61
2022/03/31 04:24:04;;;;;;;19.13;17.17;;;;;;;9.73;85.95;93402.00;4340762;32;20274;-58
2022/03/31 04:26:31;;;;;;;19.87;17.77;;;;;;;9.43;86.49;93398.84;4350135;32;20288;-60
2022/03/31 04:28:58;;;;;;;19.50;17.50;;;;;;;9.45;86.82;93401.19;4337826;32;20287;-59
2022/03/31 04:31:28;;;;;;;19.50;17.43;;;;;;;9.48;86.95;93406.56;4374237;32;20363;-58
2022/03/31 04:33:54;;;;;;;20.53;18.27;;;;;;;9.57;86.38;93409.84;4387718;32;20329;-59
2022/03/31 04:36:24;;;;;;;20.03;16.93;;;;;;;9.71;85.79;93400.81;4374916;32;20277;-58
2022/03/31 04:38:49;;;;;;;18.93;16.93;;;;;;;9.57;86.51;93409.84;4379257;32;20185;-59
2022/03/31 04:41:20;;;;;;;20.53;17.67;;;;;;;9.69;86.02;93405.66;4360330;32;20294;-59
2022/03/31 04:43:47;;;;;;;20.13;18.17;;;;;;;9.70;86.04;93405.31;4338190;32;20181;-59
2022/03/31 04:46:25;;;;;;;21.07;17.97;;;;;;;9.67;85.95;93413.16;4364724;32;20272;-58
2022/03/31 04:48:51;;;;;;;20.27;18.17;;;;;;;9.48;86.55;93406.56;4381693;32;20338;-57
2022/03/31 04:51:23;;;;;;;20.20;18.03;;;;;;;9.35;87.18;93405.06;4390014;32;20280;-59
2022/03/31 04:53:50;;;;;;;20.00;17.97;;;;;;;9.52;87.01;93402.16;4358863;32;20208;-58
2022/03/31 04:56:20;;;;;;;20.10;17.67;;;;;;;9.60;86.39;93398.59;4363578;32;20302;-58
2022/03/31 04:58:46;;;;;;;21.77;19.23;;;;;;;9.57;86.44;93393.97;4356841;32;20285;-58
2022/03/31 05:01:26;;;;;;;20.63;18.40;;;;;;;9.48;87.42;93389.94;4382509;32;20390;-59
2022/03/31 05:03:55;;;;;;;20.00;17.87;;;;;;;9.64;86.64;93399.47;4387631;32;20229;-58
2022/03/31 05:06:29;;;;;;;20.90;18.70;;;;;;;9.71;86.03;93396.28;4373879;32;20383;-59
2022/03/31 05:08:57;;;;;;;21.00;18.67;;;;;;;9.81;85.84;93398.44;4377938;32;20303;-59
2022/03/31 05:11:23;;;;;;;20.90;18.63;;;;;;;9.87;85.09;93391.03;4361472;32;20391;-59
2022/03/31 05:13:49;;;;;;;21.77;19.20;;;;;;;9.63;86.17;93394.53;4372813;32;20288;-59
2022/03/31 05:16:28;;;;;;;21.23;18.93;;;;;;;9.63;86.25;93394.53;4371844;32;20283;-59
2022/03/31 05:18:54;;;;;;;22.03;18.77;;;;;;;9.55;87.01;93390.16;4368249;32;20194;-58
2022/03/31 05:21:25;;;;;;;21.73;19.23;;;;;;;9.27;88.22;93393.47;4376752;32;20289;-59
2022/03/31 05:23:52;;;;;;;21.97;18.70;;;;;;;9.24;88.62;93396.78;4375133;32;20311;-58
2022/03/31 05:26:32;;;;;;;20.93;18.60;;;;;;;9.31;88.78;93396.25;4385973;32;20307;-59
2022/03/31 05:28:58;;;;;;;20.13;18.03;;;;;;;9.58;87.52;93392.87;4349128;32;20280;-59
2022/03/31 05:31:25;;;;;;;21.77;19.27;;;;;;;9.47;87.85;93393.69;4372617;32;20276;-59
2022/03/31 05:33:54;;;;;;;21.87;19.50;;;;;;;9.42;88.39;93386.72;4390376;32;20272;-59
2022/03/31 05:36:28;;;;;;;21.87;19.57;;;;;;;9.36;88.68;93389.94;4362019;32;20342;-59
2022/03/31 05:38:56;;;;;;;22.67;20.27;;;;;;;9.53;88.08;93381.75;4347181;32;20371;-58
2022/03/31 05:41:25;;;;;;;23.57;20.37;;;;;;;9.45;87.63;93385.28;4352839;32;20315;-58
2022/03/31 05:43:51;;;;;;;23.10;20.80;;;;;;;9.45;87.66;93380.78;4316762;32;20334;-59
2022/03/31 05:46:26;;;;;;;21.90;18.80;;;;;;;9.47;88.04;93375.16;4377274;32;20288;-58
2022/03/31 05:48:53;;;;;;;24.80;18.53;;;;;;;9.60;87.74;93374.00;4382047;32;20844;-59
2022/03/31 05:51:33;;;;;;;23.33;19.90;;;;;;;9.52;87.61;93378.34;4390458;32;20268;-59
2022/03/31 05:54:01;;;;;;;21.77;19.47;;;;;;;9.59;87.56;93383.06;4392354;32;20325;-58
2022/03/31 05:56:36;;;;;;;20.67;18.43;;;;;;;9.61;86.92;93378.19;4374714;32;20280;-58
2022/03/31 05:59:04;;;;;;;23.93;20.80;;;;;;;9.64;87.34;93377.53;4375200;32;20276;-58
2022/03/31 06:01:29;;;;;;;22.30;19.90;;;;;;;9.65;87.12;93374.56;4339098;32;20367;-58
2022/03/31 06:03:55;;;;;;;22.93;20.63;;;;;;;9.82;86.60;93376.16;4351911;32;20372;-58
2022/03/31 06:06:28;;;;;;;22.03;19.80;;;;;;;9.91;86.37;93381.31;4375826;32;20238;-58
2022/03/31 06:08:53;;;;;;;20.13;17.90;;;;;;;9.90;86.11;93374.50;4335398;32;20269;-58
2022/03/31 06:11:39;;;;;;;20.47;18.20;;;;;;;9.99;85.45;93378.53;4365199;32;20272;-58
2022/03/31 06:14:06;;;;;;;22.33;18.10;;;;;;;9.93;85.35;93384.41;4347551;32;20341;-58
2022/03/31 06:16:32;;;;;;;22.20;19.10;;;;;;;9.81;85.91;93371.19;4369165;32;20276;-58
2022/03/31 06:18:58;;;;;;;22.07;19.67;;;;;;;9.51;86.94;93389.25;4365995;32;20269;-58
2022/03/31 06:21:26;;;;;;;21.30;19.00;;;;;;;9.39;88.13;93387.38;4346673;32;20291;-59
2022/03/31 06:23:52;;;;;;;22.17;19.97;;;;;;;9.48;87.98;93377.47;4363145;32;20275;-58
2022/03/31 06:26:36;;;;;;;23.40;19.07;;;;;;;9.44;87.63;93383.75;4354710;32;20431;-58
2022/03/31 06:29:06;;;;;;;21.50;17.70;;;;;;;9.69;86.88;93389.78;4357478;32;20203;-59
2022/03/31 06:31:32;;;;;;;20.43;17.90;;;;;;;9.77;86.47;93380.94;4336472;32;20297;-59
2022/03/31 06:34:01;;;;;;;25.10;18.13;;;;;;;9.70;86.84;93381.50;4342533;32;20295;-58
2022/03/31 06:36:29;;;;;;;24.57;19.27;;;;;;;9.63;87.28;93382.06;4364445;32;20203;-58
2022/03/31 06:38:55;;;;;;;20.50;18.40;;;;;;;9.63;87.12;93376.75;4353145;32;20351;-58
2022/03/31 06:41:21;;;;;;;20.40;18.23;;;;;;;9.62;87.04;93380.50;4353335;32;20288;-58
2022/03/31 06:43:48;;;;;;;20.90;18.70;;;;;;;9.65;86.90;93387.78;4323094;32;20312;-58
2022/03/31 06:46:40;;;;;;;62.53;17.70;;;;;;;9.75;86.51;93375.97;4333280;32;20195;-59
2022/03/31 06:49:06;;;;;;;30.30;15.33;;;;;;;10.08;88.88;93378.37;4351287;32;20327;-58
2022/03/31 06:51:32;;;;;;;24.43;17.13;;;;;;;10.74;87.85;93374.44;4376863;32;20273;-59
2022/03/31 06:53:59;;;;;;;27.97;17.43;;;;;;;10.93;84.52;93366.56;4361885;32;20303;-59
2022/03/31 06:56:36;;;;;;;24.00;15.10;;;;;;;11.06;83.21;93359.25;4347791;32;20406;-59
2022/03/31 06:59:03;;;;;;;18.27;16.27;;;;;;;11.35;81.85;93361.44;4320226;32;20281;-58
2022/03/31 07:01:32;;;;;;;22.97;17.17;;;;;;;11.40;80.75;93361.19;4369047;32;20356;-59
2022/03/31 07:03:58;;;;;;;24.77;17.67;;;;;;;11.39;81.11;93359.66;4340737;32;20313;-58
2022/03/31 07:06:25;;;;;;;20.97;15.93;;;;;;;11.38;80.79;93350.13;4307191;32;20284;-58
2022/03/31 07:08:52;;;;;;;20.67;16.50;;;;;;;11.73;79.85;93350.13;4345079;32;20291;-59
2022/03/31 07:11:26;;;;;;;20.17;16.43;;;;;;;11.87;77.80;93347.75;4378824;32;20180;-59
2022/03/31 07:13:52;;;;;;;17.97;15.93;;;;;;;11.88;78.46;93346.66;4378922;32;20242;-59
2022/03/31 07:16:20;;;;;;;21.37;18.67;;;;;;;11.88;77.83;93346.66;4329770;32;20189;-58
2022/03/31 07:18:53;;;;;;;18.40;16.50;;;;;;;12.08;76.92;93342.09;4347651;32;20200;-59
2022/03/31 07:21:32;;;;;;;16.80;15.20;;;;;;;12.21;76.01;93343.50;4365669;32;20184;-59
2022/03/31 07:24:00;;;;;;;19.93;17.27;;;;;;;12.17;75.25;93342.66;4359115;32;20321;-59
2022/03/31 07:26:31;;;;;;;20.50;17.37;;;;;;;11.95;75.91;93346.78;4365559;32;20268;-60
2022/03/31 07:28:59;;;;;;;17.30;15.60;;;;;;;12.21;76.06;93348.03;4337944;32;20241;-59
2022/03/31 07:31:31;;;;;;;19.57;15.03;;;;;;;12.25;75.11;93348.88;4344130;32;20292;-59
2022/03/31 07:34:00;;;;;;;19.47;15.07;;;;;;;12.44;74.57;93348.09;4360512;32;20216;-58
2022/03/31 07:36:35;;;;;;;21.47;18.07;;;;;;;12.51;78.21;93343.62;4373048;32;20279;-59
2022/03/31 07:39:01;;;;;;;19.77;16.10;;;;;;;12.59;76.29;93347.19;4330354;32;20176;-59
2022/03/31 07:41:26;;;;;;;20.83;16.30;;;;;;;12.39;76.45;93352.56;4338545;32;20199;-57
2022/03/31 07:43:54;;;;;;;21.93;19.63;;;;;;;12.38;77.02;93353.69;4367383;32;27463;-59
2022/03/31 07:46:32;;;;;;;21.17;19.07;;;;;;;11.93;75.37;93354.34;4332236;32;20240;-58
2022/03/31 07:48:58;;;;;;;20.67;18.53;;;;;;;11.66;76.33;93350.72;4335591;32;20216;-60
2022/03/31 07:51:29;;;;;;;22.07;17.57;;;;;;;11.21;78.16;93348.63;4342149;32;20376;-56
2022/03/31 07:53:55;;;;;;;23.13;19.50;;;;;;;11.18;78.53;93351.22;4356979;32;20200;-58
2022/03/31 07:56:24;;;;;;;24.27;20.73;;;;;;;11.06;79.20;93346.75;4359285;32;20183;-58
2022/03/31 07:58:50;;;;;;;29.40;19.07;;;;;;;10.90;79.84;93340.72;4346765;32;20255;-59
2022/03/31 08:01:25;;;;;;;24.33;21.63;;;;;;;10.76;80.37;93345.69;4357559;32;20192;-58
2022/03/31 08:03:53;;;;;;;25.93;18.70;;;;;;;11.00;80.03;93346.28;4383258;32;20181;-59
2022/03/31 08:06:27;;;;;;;24.63;20.07;;;;;;;11.04;79.35;93341.03;4359452;32;20271;-59
2022/03/31 08:08:53;;;;;;;25.93;20.23;;;;;;;11.01;79.64;93331.87;4351585;32;20286;-60
2022/03/31 08:11:22;;;;;;;27.47;19.80;;;;;;;11.30;79.22;93332.50;4334660;32;20352;-59
2022/03/31 08:13:48;;;;;;;23.47;21.00;;;;;;;11.49;78.49;93329.88;4385325;32;20210;-59
2022/03/31 08:16:25;;;;;;;26.50;20.40;;;;;;;11.47;78.38;93328.69;4383510;32;20230;-59
2022/03/31 08:18:51;;;;;;;23.77;21.17;;;;;;;11.77;77.28;93326.31;4377705;32;20172;-60
2022/03/31 08:21:23;;;;;;;24.77;19.37;;;;;;;11.66;77.05;93323.41;4393191;32;20287;-61
2022/03/31 08:23:49;;;;;;;24.60;20.67;;;;;;;11.44;77.50;93321.41;4382409;32;20253;-60
2022/03/31 08:26:24;;;;;;;25.47;19.50;;;;;;;11.39;77.11;93327.03;4389924;32;20200;-61
2022/03/31 08:28:51;;;;;;;23.17;20.67;;;;;;;11.60;76.66;93320.28;4385926;32;20271;-60
2022/03/31 08:31:30;;;;;;;21.43;19.13;;;;;;;11.58;76.84;93322.50;4390527;32;20187;-60
2022/03/31 08:33:58;;;;;;;25.33;20.40;;;;;;;11.28;77.47;93324.13;4387950;32;20192;-61
2022/03/31 08:36:24;;;;;;;25.70;18.60;;;;;;;11.48;77.01;93327.56;4385955;32;20181;-59
2022/03/31 08:38:50;;;;;;;22.40;19.40;;;;;;;11.39;76.93;93325.13;4388301;32;20164;-60
2022/03/31 08:41:34;;;;;;;20.13;18.03;;;;;;;11.67;76.61;93327.59;4382186;32;20185;-59
2022/03/31 08:44:01;;;;;;;21.80;19.40;;;;;;;11.41;76.59;93322.91;4383308;32;20241;-59
2022/03/31 08:46:34;;;;;;;20.30;17.37;;;;;;;11.55;76.01;93328.50;4352732;32;20253;-59
2022/03/31 08:49:03;;;;;;;24.37;18.70;;;;;;;11.54;75.82;93326.19;4371512;32;20256;-59
2022/03/31 08:51:28;;;;;;;20.37;17.20;;;;;;;11.66;75.90;93331.37;4381028;32;20191;-61
2022/03/31 08:53:54;;;;;;;23.50;19.03;;;;;;;11.65;76.39;93333.25;4369397;32;20181;-58
2022/03/31 08:56:20;;;;;;;19.50;17.50;;;;;;;11.53;75.76;93325.41;4338347;32;20193;-59
2022/03/31 08:58:46;;;;;;;23.70;18.37;;;;;;;11.50;76.52;93326.13;4388329;32;20194;-59
2022/03/31 09:04:34;;;;;;;24.30;18.97;;;;;;;11.30;76.88;93327.19;4341966;32;20282;-61
2022/03/31 09:07:04;;;;;;;26.30;17.83;;;;;;;11.44;76.88;93324.84;4360987;32;20192;-59
2022/03/31 09:09:30;;;;;;;23.70;18.13;;;;;;;11.47;75.73;93323.38;4378285;32;20180;-62
2022/03/31 09:11:55;;;;;;;30.30;19.57;;;;;;;11.36;76.63;93320.50;4374777;32;20389;-62
2022/03/31 09:14:31;;;;;;;18.80;16.47;;;;;;;11.37;75.88;93324.72;4386874;32;20200;-60
2022/03/31 09:20:21;;;;;;;24.97;17.90;;;;;;;11.30;75.69;93321.88;4366016;32;20203;-59
2022/03/31 09:22:50;;;;;;;23.20;17.37;;;;;;;11.40;75.20;93318.72;4685810;27;20320;-68
2022/03/31 09:25:27;;;;;;;24.10;17.97;;;;;;;11.47;75.20;93324.16;4371093;32;20197;-65
2022/03/31 09:27:56;;;;;;;20.03;17.03;;;;;;;11.20;76.37;93319.78;4358532;32;20386;-67
2022/03/31 09:30:25;;;;;;;19.50;17.37;;;;;;;11.29;77.27;93315.03;4364921;32;20310;-64
2022/03/31 09:32:52;;;;;;;21.20;18.10;;;;;;;11.50;75.97;93322.69;4351148;32;20231;-65
2022/03/31 09:35:24;;;;;;;20.93;17.73;;;;;;;11.58;75.37;93314.53;4366083;32;20196;-65
2022/03/31 09:37:58;;;;;;;19.77;17.00;;;;;;;11.68;74.92;93313.97;4355390;32;20636;-67
2022/03/31 09:40:46;;;;;;;23.27;19.20;;;;;;;11.73;75.14;93314.81;4366383;32;20250;-68
2022/03/31 09:43:12;;;;;;;20.27;17.97;;;;;;;11.75;75.19;93317.88;4353409;32;20228;-68
2022/03/31 09:45:44;;;;;;;20.90;17.73;;;;;;;11.74;74.44;93316.34;4348141;32;20255;-66
2022/03/31 09:48:20;;;;;;;20.53;18.27;;;;;;;11.79;74.10;93314.22;4362937;32;20201;-70
2022/03/31 09:50:48;;;;;;;23.23;18.73;;;;;;;12.06;72.92;93320.41;4380279;32;20204;-64
2022/03/31 09:53:15;;;;;;;18.73;16.60;;;;;;;12.16;72.41;93314.53;4346294;32;20260;-68
2022/03/31 09:55:43;;;;;;;20.97;17.23;;;;;;;12.20;72.07;93310.06;4361063;32;20199;-64
2022/03/31 09:58:20;;;;;;;23.20;17.90;;;;;;;12.02;71.88;93322.25;4350465;32;20197;-66
2022/03/31 10:00:51;;;;;;;20.30;16.97;;;;;;;11.72;73.34;93327.31;4359231;32;20196;-65
2022/03/31 10:03:24;;;;;;;18.50;16.27;;;;;;;11.83;72.64;93324.91;4354057;32;20185;-67
2022/03/31 10:05:53;;;;;;;18.73;16.73;;;;;;;11.98;72.84;93318.75;4370576;32;20271;-66
2022/03/31 10:08:20;;;;;;;20.30;18.10;;;;;;;12.12;72.67;93323.56;4377491;32;20184;-66
2022/03/31 10:10:47;;;;;;;22.57;18.03;;;;;;;11.92;73.31;93326.22;4367246;32;20185;-66
2022/03/31 10:14:05;;;;;;;19.50;17.50;;;;;;;12.00;73.22;93319.19;4342810;32;20251;-65
2022/03/31 10:16:51;;;;;;;21.73;18.07;;;;;;;12.00;72.20;93316.53;4353127;32;20195;-65
2022/03/31 10:19:37;;;;;;;17.53;15.73;;;;;;;12.13;72.23;93315.22;4343783;32;20200;-65
2022/03/31 10:22:09;;;;;;;21.73;16.43;;;;;;;11.97;71.95;93319.88;4366469;32;20211;-61
2022/03/31 10:24:41;;;;;;;17.87;14.50;;;;;;;11.85;72.40;93307.47;4385192;32;20234;-65
2022/03/31 10:27:27;;;;;;;17.83;15.30;;;;;;;11.96;72.91;93305.03;4371606;32;20203;-65
2022/03/31 10:29:54;;;;;;;23.50;18.23;;;;;;;12.26;71.34;93302.56;4357891;32;20313;-66
2022/03/31 10:32:24;;;;;;;17.57;15.67;;;;;;;12.06;71.03;93299.16;4331578;32;20243;-66
2022/03/31 10:35:11;;;;;;;20.17;15.63;;;;;;;12.17;71.30;93305.44;4362773;32;20197;-65
2022/03/31 10:37:38;;;;;;;17.90;16.00;;;;;;;12.27;70.96;93304.84;4378258;32;20245;-65
2022/03/31 10:40:10;;;;;;;17.60;15.33;;;;;;;11.98;71.92;93302.81;4357003;32;20201;-65
2022/03/31 10:42:36;;;;;;;19.10;16.17;;;;;;;11.94;72.36;93299.31;4355649;32;20250;-65
2022/03/31 10:45:20;;;;;;;17.80;15.50;;;;;;;12.05;72.56;93297.62;4359643;32;20188;-66
2022/03/31 10:47:53;;;;;;;19.37;15.77;;;;;;;12.15;71.59;93288.31;4354778;32;20189;-66
2022/03/31 10:50:33;;;;;;;18.57;15.37;;;;;;;12.32;71.32;93283.28;4360485;32;20204;-66
2022/03/31 10:53:02;;;;;;;19.00;15.27;;;;;;;12.25;70.43;93279.75;4350315;32;20261;-66
2022/03/31 10:55:36;;;;;;;17.50;15.67;;;;;;;12.23;70.56;93277.47;4375002;32;20205;-65
2022/03/31 10:58:06;;;;;;;17.03;14.73;;;;;;;12.36;70.22;93270.84;4373300;32;20196;-60
2022/03/31 11:00:34;;;;;;;19.27;14.80;;;;;;;12.16;69.72;93276.56;4372974;32;20193;-66
2022/03/31 11:03:05;;;;;;;18.40;16.20;;;;;;;12.18;70.18;93269.75;4362519;32;20223;-65
2022/03/31 11:05:32;;;;;;;20.67;16.30;;;;;;;12.47;69.86;93270.25;4339276;32;20193;-65
2022/03/31 11:08:08;;;;;;;17.27;14.97;;;;;;;12.23;69.92;93269.47;4365747;32;20207;-65
2022/03/31 11:10:42;;;;;;;17.50;15.63;;;;;;;12.27;70.42;93264.97;4350115;32;20184;-64
2022/03/31 11:13:09;;;;;;;18.00;16.10;;;;;;;12.11;70.51;93269.63;4336459;32;20214;-65
2022/03/31 11:15:34;;;;;;;18.03;16.13;;;;;;;12.10;70.27;93264.66;4358683;32;20212;-65
2022/03/31 11:18:03;;;;;;;17.83;15.03;;;;;;;11.95;71.06;93261.00;4352429;32;20196;-66
2022/03/31 11:20:30;;;;;;;18.83;16.83;;;;;;;12.07;71.48;93262.72;4359657;32;20242;-66
2022/03/31 11:23:03;;;;;;;18.93;16.47;;;;;;;11.87;72.32;93267.28;4377605;32;20212;-65
2022/03/31 11:25:30;;;;;;;20.80;17.67;;;;;;;11.82;72.77;93263.06;4354256;32;20204;-65
2022/03/31 11:27:58;;;;;;;19.17;17.17;;;;;;;11.88;73.06;93252.88;4345467;32;20263;-66
2022/03/31 11:30:30;;;;;;;19.30;17.23;;;;;;;11.92;73.71;93251.06;4363623;32;21526;-65
2022/03/31 11:32:58;;;;;;;19.13;16.80;;;;;;;11.89;73.91;93259.72;4365232;32;20188;-66
2022/03/31 11:35:28;;;;;;;22.80;18.23;;;;;;;11.99;73.62;93253.84;4364685;32;20277;-65
2022/03/31 11:38:02;;;;;;;24.27;17.70;;;;;;;11.99;73.61;93251.19;4343337;32;20330;-65
2022/03/31 11:40:32;;;;;;;23.13;17.33;;;;;;;12.07;73.40;93250.19;4354402;32;20210;-66
2022/03/31 11:43:01;;;;;;;20.63;17.20;;;;;;;11.92;73.19;93251.06;4364426;32;20310;-65
2022/03/31 11:45:33;;;;;;;22.23;18.17;;;;;;;11.82;73.23;93247.09;4368575;32;20232;-66
2022/03/31 11:48:14;;;;;;;20.10;17.20;;;;;;;11.54;75.00;93247.31;4334073;32;20227;-64